createdAt,value
2019-04-10T00:01:23.545Z,15.00
2019-04-10T00:03:52.532Z,15.10
2019-04-10T00:06:21.697Z,15.10
2019-04-10T00:08:50.625Z,15.20
2019-04-10T00:11:19.374Z,15.30
2019-04-10T00:13:49.037Z,15.40
2019-04-10T00:16:18.142Z,15.40
2019-04-10T00:18:47.008Z,15.30
2019-04-10T00:21:15.797Z,15.30
2019-04-10T00:23:44.462Z,15.30
2019-04-10T00:26:13.248Z,15.20
2019-04-10T00:28:41.989Z,15.30
2019-04-10T00:31:10.743Z,15.30
2019-04-10T00:33:39.506Z,15.30
2019-04-10T00:36:08.360Z,15.30
2019-04-10T00:38:37.975Z,15.30
2019-04-10T00:41:06.607Z,15.30
2019-04-10T00:43:35.363Z,15.30
2019-04-10T00:46:04.134Z,15.10
2019-04-10T00:48:32.905Z,15.00
2019-04-10T00:51:01.591Z,15.00
2019-04-10T00:53:30.350Z,14.90
2019-04-10T00:56:01.993Z,14.80
2019-04-10T00:58:30.784Z,14.70
2019-04-10T01:00:59.546Z,14.60
2019-04-10T01:03:43.728Z,14.60
2019-04-10T01:06:13.686Z,14.60
2019-04-10T01:08:42.766Z,14.50
2019-04-10T01:11:11.756Z,14.60
2019-04-10T01:13:41.129Z,14.70
2019-04-10T01:16:09.903Z,14.70
2019-04-10T01:18:39.511Z,14.80
2019-04-10T01:21:08.367Z,14.80
2019-04-10T01:23:38.044Z,14.80
2019-04-10T01:26:07.292Z,14.80
2019-04-10T01:28:36.713Z,14.80
2019-04-10T01:31:06.646Z,14.80
2019-04-10T01:33:36.730Z,14.80
2019-04-10T01:36:05.546Z,14.70
2019-04-10T01:38:34.307Z,14.70
2019-04-10T01:41:03.600Z,14.70
2019-04-10T01:43:32.980Z,14.60
2019-04-10T01:46:02.082Z,14.60
2019-04-10T01:48:30.760Z,14.60
2019-04-10T01:50:59.441Z,14.50
2019-04-10T01:53:28.094Z,14.50
2019-04-10T01:55:57.605Z,14.40
2019-04-10T01:58:27.281Z,14.40
2019-04-10T02:00:57.710Z,14.30
2019-04-10T02:03:26.386Z,14.30
2019-04-10T02:05:55.151Z,14.30
2019-04-10T02:08:23.837Z,14.30
2019-04-10T02:10:52.588Z,14.30
2019-04-10T02:13:21.458Z,14.20
2019-04-10T02:15:50.292Z,14.20
2019-04-10T02:18:19.353Z,14.10
2019-04-10T02:20:48.109Z,14.10
2019-04-10T02:23:16.867Z,14.10
2019-04-10T02:25:45.618Z,14.10
2019-04-10T02:28:15.078Z,14.20
2019-04-10T02:30:43.951Z,14.20
2019-04-10T02:33:13.928Z,14.10
2019-04-10T02:35:43.513Z,14.00
2019-04-10T02:38:30.679Z,13.90
2019-04-10T02:40:43.391Z,13.90
2019-04-10T02:43:13.934Z,14.00
2019-04-10T02:45:44.482Z,14.00
2019-04-10T02:48:13.061Z,14.10
2019-04-10T02:50:43.024Z,14.20
2019-04-10T02:53:13.103Z,14.20
2019-04-10T02:55:43.154Z,14.30
2019-04-10T02:58:12.082Z,14.30
2019-04-10T03:00:42.158Z,14.30
2019-04-10T03:03:12.011Z,14.30
2019-04-10T03:05:42.568Z,14.20
2019-04-10T03:08:13.017Z,14.20
2019-04-10T03:10:48.542Z,14.20
2019-04-10T03:13:13.738Z,14.20
2019-04-10T03:15:43.415Z,14.10
2019-04-10T03:18:12.741Z,13.90
2019-04-10T03:20:42.625Z,14.00
2019-04-10T03:23:11.590Z,13.90
2019-04-10T03:25:41.400Z,13.90
2019-04-10T03:28:11.086Z,13.90
2019-04-10T03:30:41.550Z,13.90
2019-04-10T03:33:17.096Z,13.90
2019-04-10T03:35:45.006Z,13.90
2019-04-10T03:38:14.669Z,13.90
2019-04-10T03:40:43.733Z,13.70
2019-04-10T03:43:12.442Z,13.70
2019-04-10T03:45:41.209Z,13.80
2019-04-10T03:48:09.887Z,13.80
2019-04-10T03:50:39.579Z,13.80
2019-04-10T03:53:08.402Z,13.80
2019-04-10T03:55:37.167Z,13.80
2019-04-10T03:58:05.913Z,13.80
2019-04-10T04:00:34.602Z,13.80
2019-04-10T04:03:04.197Z,13.80
2019-04-10T04:05:33.043Z,13.90
2019-04-10T04:08:01.723Z,13.90
2019-04-10T04:10:30.782Z,13.90
2019-04-10T04:13:00.193Z,13.90
2019-04-10T04:15:30.226Z,13.90
2019-04-10T04:17:58.924Z,13.90
2019-04-10T04:20:28.618Z,14.00
2019-04-10T04:22:57.400Z,14.10
2019-04-10T04:25:26.145Z,14.10
2019-04-10T04:27:54.776Z,14.00
2019-04-10T04:30:24.585Z,14.00
2019-04-10T04:32:53.920Z,14.10
2019-04-10T04:35:22.707Z,14.10
2019-04-10T04:37:52.633Z,14.10
2019-04-10T04:40:21.759Z,14.10
2019-04-10T04:42:51.388Z,14.10
2019-04-10T04:45:20.198Z,14.00
2019-04-10T04:47:48.820Z,14.00
2019-04-10T04:50:17.817Z,14.00
2019-04-10T04:52:46.629Z,14.10
2019-04-10T04:55:15.309Z,14.20
2019-04-10T04:57:44.962Z,14.20
2019-04-10T05:00:15.226Z,14.30
2019-04-10T05:02:44.781Z,14.30
2019-04-10T05:05:14.325Z,14.40
2019-04-10T05:07:54.105Z,14.40
2019-04-10T05:10:13.529Z,14.50
2019-04-10T05:12:43.534Z,14.60
2019-04-10T05:15:12.934Z,14.60
2019-04-10T05:17:41.738Z,14.70
2019-04-10T05:20:11.195Z,14.70
2019-04-10T05:22:39.887Z,14.70
2019-04-10T05:25:09.033Z,14.60
2019-04-10T05:27:37.734Z,14.60
2019-04-10T05:30:08.491Z,14.60
2019-04-10T05:32:37.554Z,14.50
2019-04-10T05:35:08.558Z,14.60
2019-04-10T05:37:40.152Z,14.60
2019-04-10T05:40:09.802Z,14.70
2019-04-10T05:42:39.416Z,14.80
2019-04-10T05:45:10.867Z,14.80
2019-04-10T05:47:39.698Z,14.80
2019-04-10T05:50:08.973Z,14.80
2019-04-10T05:52:37.690Z,14.70
2019-04-10T05:55:07.081Z,14.70
2019-04-10T05:57:35.719Z,14.70
2019-04-10T06:00:10.397Z,14.70
2019-04-10T06:02:39.829Z,14.80
2019-04-10T06:05:09.757Z,14.90
2019-04-10T06:07:39.249Z,15.00
2019-04-10T06:10:10.251Z,15.10
2019-04-10T06:12:38.635Z,15.10
2019-04-10T06:15:08.002Z,15.10
2019-04-10T06:17:36.700Z,15.20
2019-04-10T06:20:07.137Z,15.20
2019-04-10T06:22:36.870Z,15.30
2019-04-10T06:25:08.546Z,15.50
2019-04-10T06:27:36.810Z,15.70
2019-04-10T06:30:09.961Z,15.80
2019-04-10T06:32:39.657Z,15.90
2019-04-10T06:35:08.906Z,16.00
2019-04-10T06:37:38.029Z,16.00
2019-04-10T06:40:14.235Z,16.10
2019-04-10T06:42:46.611Z,16.30
2019-04-10T06:45:09.318Z,16.40
2019-04-10T06:47:38.284Z,16.40
2019-04-10T06:50:07.595Z,16.40
2019-04-10T06:52:36.353Z,16.50
2019-04-10T06:55:06.312Z,16.70
2019-04-10T06:57:47.647Z,16.80
2019-04-10T07:00:12.209Z,16.90
2019-04-10T07:02:38.948Z,16.90
2019-04-10T07:05:10.440Z,17.10
2019-04-10T07:07:49.617Z,17.10
2019-04-10T07:10:20.214Z,17.30
2019-04-10T07:12:39.733Z,17.30
2019-04-10T07:15:08.936Z,17.40
2019-04-10T07:17:41.860Z,17.40
2019-04-10T07:20:12.068Z,17.30
2019-04-10T07:22:46.582Z,17.20
2019-04-10T07:25:12.851Z,17.30
2019-04-10T07:27:41.922Z,17.50
2019-04-10T07:30:11.905Z,17.60
2019-04-10T07:32:44.211Z,17.70
2019-04-10T07:35:13.945Z,17.80
2019-04-10T07:37:42.437Z,17.80
2019-04-10T07:40:12.244Z,17.90
2019-04-10T07:42:42.823Z,17.80
2019-04-10T07:45:11.661Z,17.90
2019-04-10T07:47:40.357Z,18.00
2019-04-10T07:50:10.317Z,18.00
2019-04-10T07:52:39.253Z,18.20
2019-04-10T07:55:08.596Z,18.30
2019-04-10T07:57:38.398Z,18.10
2019-04-10T08:00:09.401Z,18.20
2019-04-10T08:02:42.727Z,17.90
2019-04-10T08:05:12.290Z,17.90
2019-04-10T08:07:41.051Z,18.20
2019-04-10T08:10:10.119Z,18.30
2019-04-10T08:12:46.857Z,18.50
2019-04-10T08:15:09.568Z,18.70
2019-04-10T08:17:39.024Z,18.90
2019-04-10T08:20:08.119Z,19.10
2019-04-10T08:22:37.174Z,19.00
2019-04-10T08:25:08.920Z,19.10
2019-04-10T08:27:38.486Z,19.20
2019-04-10T08:30:10.857Z,19.50
2019-04-10T08:32:51.429Z,19.70
2019-04-10T08:35:09.166Z,19.70
2019-04-10T08:37:39.041Z,19.80
2019-04-10T08:40:09.616Z,19.80
2019-04-10T08:42:40.202Z,19.90
2019-04-10T08:45:09.254Z,19.70
2019-04-10T08:47:38.012Z,19.70
2019-04-10T08:50:07.816Z,19.60
2019-04-10T08:52:37.041Z,19.50
2019-04-10T08:55:06.126Z,19.40
2019-04-10T08:57:35.903Z,19.60
2019-04-10T09:00:08.009Z,19.70
2019-04-10T09:02:39.765Z,19.80
2019-04-10T09:05:09.205Z,19.90
2019-04-10T09:07:38.294Z,19.80
2019-04-10T09:10:08.125Z,19.60
2019-04-10T09:12:36.860Z,19.50
2019-04-10T09:15:07.665Z,19.70
2019-04-10T09:17:37.513Z,19.80
2019-04-10T09:20:08.785Z,19.70
2019-04-10T09:23:05.818Z,19.90
2019-04-10T09:25:09.159Z,20.00
2019-04-10T09:27:37.946Z,20.10
2019-04-10T09:30:08.830Z,20.30
2019-04-10T09:32:37.588Z,20.20
2019-04-10T09:35:08.919Z,20.60
2019-04-10T09:37:38.139Z,20.80
2019-04-10T09:40:07.980Z,20.80
2019-04-10T09:42:36.902Z,21.10
2019-04-10T09:45:06.012Z,21.40
2019-04-10T09:47:34.870Z,21.80
2019-04-10T09:50:05.577Z,22.00
2019-04-10T09:52:35.496Z,21.80
2019-04-10T09:55:05.476Z,21.60
2019-04-10T09:57:34.623Z,21.80
2019-04-10T10:00:03.885Z,21.90
2019-04-10T10:02:33.461Z,22.50
2019-04-10T10:05:02.398Z,22.60
2019-04-10T10:07:31.168Z,22.90
2019-04-10T10:10:01.311Z,23.20
2019-04-10T10:12:30.279Z,23.40
2019-04-10T10:15:00.122Z,23.40
2019-04-10T10:17:28.845Z,23.60
2019-04-10T10:19:57.555Z,24.00
2019-04-10T10:22:27.646Z,24.30
2019-04-10T10:24:57.710Z,23.90
2019-04-10T10:27:26.809Z,23.40
2019-04-10T10:29:56.064Z,23.00
2019-04-10T10:32:24.888Z,22.90
2019-04-10T10:34:54.550Z,23.40
2019-04-10T10:37:24.894Z,23.50
2019-04-10T10:39:53.682Z,23.80
2019-04-10T10:42:23.514Z,23.60
2019-04-10T10:44:52.286Z,23.20
2019-04-10T10:47:22.160Z,23.60
2019-04-10T10:49:50.922Z,24.00
2019-04-10T10:52:19.740Z,23.90
2019-04-10T10:54:49.307Z,23.30
2019-04-10T10:57:19.154Z,22.60
2019-04-10T10:59:48.006Z,22.60
2019-04-10T11:02:17.089Z,22.60
2019-04-10T11:04:45.874Z,22.80
2019-04-10T11:07:14.630Z,22.60
2019-04-10T11:09:44.445Z,22.30
2019-04-10T11:12:13.592Z,22.70
2019-04-10T11:14:43.584Z,23.20
2019-04-10T11:17:13.457Z,24.00
2019-04-10T11:19:43.482Z,24.20
2019-04-10T11:22:14.055Z,24.90
2019-04-10T11:24:44.418Z,25.50
2019-04-10T11:27:14.306Z,25.30
2019-04-10T11:29:45.272Z,25.40
2019-04-10T11:32:14.397Z,25.80
2019-04-10T11:34:43.280Z,26.60
2019-04-10T11:37:23.389Z,26.70
2019-04-10T11:39:44.953Z,26.30
2019-04-10T11:42:12.761Z,24.90
2019-04-10T11:44:45.110Z,23.90
2019-04-10T11:47:12.487Z,23.40
2019-04-10T11:49:43.385Z,23.10
2019-04-10T11:52:14.509Z,22.80
2019-04-10T11:54:45.999Z,23.40
2019-04-10T11:57:13.302Z,24.30
2019-04-10T11:59:44.855Z,23.90
2019-04-10T12:02:14.436Z,23.90
2019-04-10T12:04:53.108Z,24.10
2019-04-10T12:07:53.039Z,23.60
2019-04-10T12:12:19.531Z,23.20
2019-04-10T12:14:48.194Z,23.10
2019-04-10T12:17:17.886Z,23.00
2019-04-10T12:19:46.771Z,23.00
2019-04-10T12:25:37.295Z,22.40
2019-04-10T12:28:06.051Z,20.90
2019-04-10T12:30:35.294Z,20.90
2019-04-10T12:33:05.293Z,20.80
2019-04-10T12:35:34.110Z,20.50
2019-04-10T12:38:07.006Z,20.20
2019-04-10T12:40:33.127Z,20.20
2019-04-10T12:43:02.896Z,20.10
2019-04-10T12:45:32.627Z,19.90
2019-04-10T12:48:02.132Z,19.40
2019-04-10T12:50:31.011Z,18.70
2019-04-10T12:52:59.656Z,17.70
2019-04-10T12:55:28.539Z,17.50
2019-04-10T12:58:06.495Z,17.30
2019-04-10T13:00:28.134Z,17.20
2019-04-10T13:02:57.128Z,16.60
2019-04-10T13:05:27.378Z,15.80
2019-04-10T13:08:06.414Z,15.20
2019-04-10T13:10:29.592Z,14.90
2019-04-10T13:12:58.395Z,14.50
2019-04-10T13:15:27.603Z,14.50
2019-04-10T13:17:57.508Z,14.50
2019-04-10T13:20:27.115Z,14.40
2019-04-10T13:22:56.270Z,14.50
2019-04-10T13:25:25.966Z,14.70
2019-04-10T13:27:54.875Z,14.90
2019-04-10T13:30:23.720Z,15.10
2019-04-10T13:32:52.688Z,15.00
2019-04-10T13:35:22.001Z,15.00
2019-04-10T13:37:50.719Z,14.90
2019-04-10T13:40:19.527Z,14.80
2019-04-10T13:42:48.157Z,14.90
2019-04-10T13:45:17.891Z,15.00
2019-04-10T13:47:47.075Z,15.20
2019-04-10T13:50:17.159Z,15.40
2019-04-10T13:52:50.471Z,15.50
2019-04-10T13:55:18.951Z,15.60
2019-04-10T13:57:47.790Z,15.60
2019-04-10T14:00:28.602Z,15.70
2019-04-10T14:02:58.241Z,15.70
2019-04-10T14:05:27.673Z,15.70
2019-04-10T14:07:56.392Z,15.80
2019-04-10T14:10:25.180Z,15.80
2019-04-10T14:12:53.982Z,15.80
2019-04-10T14:15:24.346Z,15.90
2019-04-10T14:17:54.144Z,15.90
2019-04-10T14:20:23.656Z,16.00
2019-04-10T14:23:12.566Z,16.00
2019-04-10T14:25:44.099Z,16.10
2019-04-10T14:28:13.119Z,16.20
2019-04-10T14:30:43.571Z,16.40
2019-04-10T14:33:12.958Z,16.60
2019-04-10T14:35:41.657Z,16.90
2019-04-10T14:38:10.696Z,17.10
2019-04-10T14:40:40.138Z,17.00
2019-04-10T14:43:08.920Z,16.90
2019-04-10T14:45:37.564Z,17.00
2019-04-10T14:48:07.796Z,17.00
2019-04-10T14:50:36.638Z,16.90
2019-04-10T14:53:05.618Z,17.10
2019-04-10T14:55:35.479Z,17.30
2019-04-10T14:58:05.530Z,17.60
2019-04-10T15:00:41.779Z,17.90
2019-04-10T15:03:10.501Z,18.00
2019-04-10T15:05:47.799Z,18.30
2019-04-10T15:08:09.799Z,18.60
2019-04-10T15:10:38.549Z,18.80
2019-04-10T15:13:13.139Z,18.70
2019-04-10T15:15:38.621Z,18.50
2019-04-10T15:18:08.741Z,18.10
2019-04-10T15:20:37.703Z,17.90
2019-04-10T15:23:07.751Z,18.00
2019-04-10T15:25:37.430Z,18.20
2019-04-10T15:28:06.458Z,19.20
2019-04-10T15:30:35.336Z,19.70
2019-04-10T15:33:04.586Z,20.50
2019-04-10T15:35:33.516Z,20.90
2019-04-10T15:38:02.353Z,21.30
2019-04-10T15:40:32.262Z,20.80
2019-04-10T15:43:01.000Z,20.50
2019-04-10T15:45:30.248Z,20.30
2019-04-10T15:48:00.511Z,20.20
2019-04-10T15:50:30.415Z,20.00
2019-04-10T15:52:59.952Z,20.20
2019-04-10T15:55:29.877Z,19.90
2019-04-10T15:58:01.215Z,19.70
2019-04-10T16:00:29.467Z,19.90
2019-04-10T16:02:58.254Z,19.90
2019-04-10T16:05:26.914Z,19.80
2019-04-10T16:07:55.566Z,19.30
2019-04-10T16:10:25.994Z,19.20
2019-04-10T16:12:55.527Z,19.10
2019-04-10T16:15:25.097Z,19.10
2019-04-10T16:17:58.838Z,19.20
2019-04-10T16:20:29.440Z,19.00
2019-04-10T16:23:02.651Z,18.90
2019-04-10T16:25:31.355Z,19.00
2019-04-10T16:28:02.124Z,19.00
2019-04-10T16:30:30.987Z,18.90
2019-04-10T16:33:00.707Z,18.80
2019-04-10T16:35:29.639Z,18.50
2019-04-10T16:38:00.203Z,18.40
2019-04-10T16:40:29.942Z,18.10
2019-04-10T16:42:59.332Z,17.90
2019-04-10T16:45:28.688Z,17.50
2019-04-10T16:47:57.338Z,17.50
2019-04-10T16:50:26.074Z,17.50
2019-04-10T16:52:55.617Z,17.50
2019-04-10T16:55:24.896Z,17.60
2019-04-10T16:57:53.618Z,17.50
2019-04-10T17:00:23.606Z,17.60
2019-04-10T17:02:52.717Z,17.60
2019-04-10T17:05:22.628Z,17.60
2019-04-10T17:07:51.644Z,17.50
2019-04-10T17:10:24.429Z,17.50
2019-04-10T17:12:51.936Z,17.40
2019-04-10T17:15:20.891Z,17.40
2019-04-10T17:17:50.598Z,17.40
2019-04-10T17:20:20.347Z,17.40
2019-04-10T17:22:49.757Z,17.30
2019-04-10T17:25:18.626Z,17.30
2019-04-10T17:27:47.939Z,17.20
2019-04-10T17:30:17.800Z,17.20
2019-04-10T17:32:46.639Z,17.20
2019-04-10T17:35:15.923Z,17.10
2019-04-10T17:37:45.707Z,17.10
2019-04-10T17:40:27.415Z,17.10
2019-04-10T17:42:46.346Z,17.00
2019-04-10T17:45:15.945Z,17.00
2019-04-10T17:47:45.754Z,16.90
2019-04-10T17:50:18.407Z,16.90
2019-04-10T17:52:47.300Z,16.80
2019-04-10T17:55:15.974Z,16.80
2019-04-10T17:57:46.119Z,16.70
2019-04-10T18:00:22.961Z,16.60
2019-04-10T18:02:51.900Z,16.40
2019-04-10T18:05:20.553Z,16.40
2019-04-10T18:07:49.287Z,16.30
2019-04-10T18:10:18.363Z,16.20
2019-04-10T18:12:48.037Z,16.30
2019-04-10T18:15:16.870Z,16.20
2019-04-10T18:17:45.601Z,16.20
2019-04-10T18:20:14.446Z,16.10
2019-04-10T18:22:43.099Z,16.20
2019-04-10T18:25:11.978Z,16.00
2019-04-10T18:27:40.800Z,15.80
2019-04-10T18:30:09.963Z,15.90
2019-04-10T18:32:38.777Z,15.90
2019-04-10T18:35:08.896Z,15.90
2019-04-10T18:37:37.530Z,15.90
2019-04-10T18:40:07.505Z,15.90
2019-04-10T18:42:37.307Z,15.80
2019-04-10T18:45:09.683Z,15.80
2019-04-10T18:47:39.355Z,15.80
2019-04-10T18:50:08.430Z,15.90
2019-04-10T18:52:37.368Z,16.00
2019-04-10T18:55:06.431Z,15.90
2019-04-10T18:57:35.754Z,15.90
2019-04-10T19:00:10.147Z,15.90
2019-04-10T19:02:57.184Z,15.80
2019-04-10T19:05:33.975Z,15.90
2019-04-10T19:08:03.066Z,15.90
2019-04-10T19:10:32.650Z,15.90
2019-04-10T19:13:01.628Z,15.90
2019-04-10T19:15:32.831Z,15.90
2019-04-10T19:18:01.592Z,15.90
2019-04-10T19:20:31.319Z,15.90
2019-04-10T19:23:00.982Z,15.90
2019-04-10T19:25:30.250Z,15.80
2019-04-10T19:28:00.258Z,15.70
2019-04-10T19:30:37.300Z,15.70
2019-04-10T19:33:06.251Z,15.70
2019-04-10T19:35:35.127Z,15.70
2019-04-10T19:38:03.792Z,15.60
2019-04-10T19:40:32.578Z,15.50
2019-04-10T19:43:02.024Z,15.50
2019-04-10T19:45:32.119Z,15.50
2019-04-10T19:48:01.144Z,15.40
2019-04-10T19:50:30.229Z,15.40
2019-04-10T19:52:58.969Z,15.50
2019-04-10T19:55:27.632Z,15.50
2019-04-10T19:57:57.401Z,15.50
2019-04-10T20:00:28.397Z,15.60
2019-04-10T20:02:57.361Z,15.50
2019-04-10T20:05:26.089Z,15.50
2019-04-10T20:07:55.445Z,15.40
2019-04-10T20:10:24.024Z,15.50
2019-04-10T20:12:53.008Z,15.50
2019-04-10T20:15:22.530Z,15.50
2019-04-10T20:17:52.450Z,15.40
2019-04-10T20:20:21.485Z,15.30
2019-04-10T20:22:50.339Z,15.20
2019-04-10T20:25:19.143Z,15.20
2019-04-10T20:27:48.065Z,15.20
2019-04-10T20:30:18.130Z,15.30
2019-04-10T20:32:46.797Z,15.20
2019-04-10T20:35:16.160Z,15.20
2019-04-10T20:37:45.032Z,15.30
2019-04-10T20:40:13.930Z,15.40
2019-04-10T20:42:42.885Z,15.40
2019-04-10T20:45:11.849Z,15.40
2019-04-10T20:47:41.320Z,15.40
2019-04-10T20:50:10.324Z,15.40
2019-04-10T20:52:40.812Z,15.40
2019-04-10T20:55:09.434Z,15.30
2019-04-10T20:57:38.118Z,15.40
2019-04-10T21:00:09.523Z,15.30
2019-04-10T21:02:38.354Z,15.20
2019-04-10T21:05:09.679Z,15.10
2019-04-10T21:07:37.743Z,15.10
2019-04-10T21:10:08.536Z,15.00
2019-04-10T21:12:37.315Z,14.90
2019-04-10T21:15:06.722Z,14.80
2019-04-10T21:17:35.390Z,14.70
2019-04-10T21:20:07.896Z,14.60
2019-04-10T21:22:36.752Z,14.40
2019-04-10T21:25:08.144Z,14.40
2019-04-10T21:27:37.632Z,14.30
2019-04-10T21:30:11.719Z,14.10
2019-04-10T21:32:44.571Z,14.10
2019-04-10T21:35:18.717Z,14.00
2019-04-10T21:37:48.572Z,13.90
2019-04-10T21:40:18.565Z,13.80
2019-04-10T21:42:47.593Z,13.90
2019-04-10T21:45:16.484Z,13.80
2019-04-10T21:47:45.993Z,13.70
2019-04-10T21:50:15.227Z,13.70
2019-04-10T21:52:43.922Z,13.70
2019-04-10T21:55:12.905Z,13.70
2019-04-10T21:57:42.548Z,13.50
2019-04-10T22:00:12.342Z,13.50
2019-04-10T22:02:41.929Z,13.50
2019-04-10T22:05:12.488Z,13.50
2019-04-10T22:07:48.437Z,13.50
2019-04-10T22:10:24.511Z,13.50
2019-04-10T22:12:53.247Z,13.50
2019-04-10T22:15:24.608Z,13.60
2019-04-10T22:17:53.463Z,13.60
2019-04-10T22:20:22.200Z,13.60
2019-04-10T22:22:51.385Z,13.60
2019-04-10T22:25:21.485Z,13.60
2019-04-10T22:27:50.262Z,13.60
2019-04-10T22:30:19.130Z,13.50
2019-04-10T22:32:47.790Z,13.50
2019-04-10T22:35:17.448Z,13.50
2019-04-10T22:37:46.372Z,13.40
2019-04-10T22:40:15.343Z,13.40
2019-04-10T22:42:46.755Z,13.40
2019-04-10T22:45:27.954Z,13.40
2019-04-10T22:47:58.341Z,13.40
2019-04-10T22:50:27.555Z,13.50
2019-04-10T22:52:57.048Z,13.50
2019-04-10T22:55:26.086Z,13.50
2019-04-10T22:57:54.850Z,13.60
2019-04-10T23:00:28.171Z,13.50
2019-04-10T23:02:57.314Z,13.40
2019-04-10T23:05:26.743Z,13.30
2019-04-10T23:07:55.661Z,13.40
2019-04-10T23:10:24.781Z,13.50
2019-04-10T23:13:00.815Z,13.50
2019-04-10T23:15:25.132Z,13.50
2019-04-10T23:17:54.137Z,13.50
2019-04-10T23:20:23.712Z,13.50
2019-04-10T23:22:52.641Z,13.50
2019-04-10T23:25:22.392Z,13.40
2019-04-10T23:27:53.452Z,13.30
2019-04-10T23:30:21.604Z,13.20
2019-04-10T23:32:51.286Z,13.10
2019-04-10T23:35:21.181Z,13.10
2019-04-10T23:37:51.057Z,13.20
2019-04-10T23:40:20.889Z,13.20
2019-04-10T23:43:02.951Z,13.10
2019-04-10T23:45:20.276Z,13.10
2019-04-10T23:47:48.939Z,13.00
2019-04-10T23:50:18.556Z,13.00
2019-04-10T23:55:51.109Z,13.10
2019-04-10T23:58:19.936Z,12.90
